Terminal Aerodrome Forecast
Issued by NWS

Home | Current Version | Previous Version | Text Only | Print | Product List | Glossary On
Versions: 1 2 3 4 5 6 7 8 9 10 11 12 13 14 15 16 17 18 19 20
000
FTUS41 KOKX 011434 AAA
TAFSWF
TAF AMD
KSWF 011434Z 0115/0218 VRB05KT P6SM SCT050
     FM012300 VRB02KT P6SM SCT250
      TEMPO 0208/0211 4SM BR
     FM021600 26007KT P6SM SCT050
      AMD NOT SKED=

USA.gov is the U.S. government's official web portal to all federal, state and local government web resources and services.